Tridens — PBVO — position and weather

sailwx.info

Track history (hours):
 
Tides and Currents Weather Stations Pressure Air Temp Water Temp Dewpoint Dewpoint Depression Visibility Wind Speed Wind Dir Waves Ship Positions

Oceanographic research ship Tridens (Netherlands)

Detailed information on ship capabilities available from University of Delaware's Ocean Information Center.

Last reported at 2016-Feb-08 03:33 UTC. Time now 2016-Feb-08 04:04 UTC.
Position N 52°06' E 004°16'.

Length 74 m; beam 14 m.

Type: Other ship. MMSI: 244033000.

Date/timePositionNaut miles runAvg speedWind from/ knotsBaromVisibWave heightAir tempDewpointWater temp
2016-Feb-08 03:33N 52°06' E 004°16'0 0.0
2016-Feb-08 02:33N 52°06' E 004°16'0 0.0
2016-Feb-08 01:33N 52°06' E 004°16'0 0.0
2016-Feb-08 00:33N 52°06' E 004°16'0 0.0
2016-Feb-07 23:33N 52°06' E 004°16'0 0.0
2016-Feb-07 22:33N 52°06' E 004°16'0 0.0
2016-Feb-07 21:33N 52°06' E 004°16'0 0.0
2016-Feb-07 20:33N 52°06' E 004°16'0 0.0
2016-Feb-07 19:33N 52°06' E 004°16'0 0.0
2016-Feb-07 18:33N 52°06' E 004°16'0 0.0
2016-Feb-07 17:33N 52°06' E 004°16'0 0.0
2016-Feb-07 16:33N 52°06' E 004°16'0 0.0
2016-Feb-07 15:33N 52°06' E 004°16'0 0.0
2016-Feb-07 14:33N 52°06' E 004°16'0 0.0
2016-Feb-07 13:33N 52°06' E 004°16'0 0.0
2016-Feb-07 12:33N 52°06' E 004°16'0 0.0
2016-Feb-07 11:33N 52°06' E 004°16'0 0.0
2016-Feb-07 10:33N 52°06' E 004°16'0 0.0
2016-Feb-07 09:33N 52°06' E 004°16'0 0.0
2016-Feb-07 08:33N 52°06' E 004°16'0 0.0
2016-Feb-07 07:33N 52°06' E 004°16'0 0.0
2016-Feb-07 06:33N 52°06' E 004°16'0 0.0
2016-Feb-07 05:34N 52°06' E 004°16'0 0.0
2016-Feb-07 04:33N 52°06' E 004°16'0 0.0
2016-Feb-07 03:33N 52°06' E 004°16'0 0.0
2016-Feb-07 02:33N 52°06' E 004°16'0 0.0
2016-Feb-07 01:33N 52°06' E 004°16'0 0.0
2016-Feb-07 00:33N 52°06' E 004°16'0 0.0
2016-Feb-06 23:33N 52°06' E 004°16'0 0.0
2016-Feb-06 22:33N 52°06' E 004°16'0 0.0
2016-Feb-06 21:33N 52°06' E 004°16'0 0.0
2016-Feb-06 20:33N 52°06' E 004°16'0 0.0
2016-Feb-06 19:33N 52°06' E 004°16'0 0.0
2016-Feb-06 18:33N 52°06' E 004°16'0 0.0
2016-Feb-06 17:33N 52°06' E 004°16'0 0.0
2016-Feb-06 16:33N 52°06' E 004°16'0 0.0
2016-Feb-06 15:33N 52°06' E 004°16'0 0.0
2016-Feb-06 14:33N 52°06' E 004°16'0 0.0
2016-Feb-06 13:33N 52°06' E 004°16'0 0.0
2016-Feb-06 12:33N 52°06' E 004°16'0 0.0
2016-Feb-06 11:33N 52°06' E 004°16'0 0.0
2016-Feb-06 10:33N 52°06' E 004°16'0 0.0
2016-Feb-06 09:33N 52°06' E 004°16'0 0.0
2016-Feb-06 08:33N 52°06' E 004°16'0 0.0
2016-Feb-06 07:33N 52°06' E 004°16'0 0.0
2016-Feb-06 06:33N 52°06' E 004°16'0 0.0
2016-Feb-06 05:33N 52°06' E 004°16'0 0.0
2016-Feb-06 04:33N 52°06' E 004°16'0 0.0
2016-Feb-06 03:33N 52°06' E 004°16'0 0.0
2016-Feb-06 02:33N 52°06' E 004°16'0 0.0
2016-Feb-06 01:33N 52°06' E 004°16'0 0.0
2016-Feb-06 00:33N 52°06' E 004°16'0 0.0
2016-Feb-05 23:33N 52°06' E 004°16'0 0.0
2016-Feb-05 22:33N 52°06' E 004°16'0 0.0
2016-Feb-05 21:33N 52°06' E 004°16'0 0.0
2016-Feb-05 20:33N 52°06' E 004°16'0 0.0
2016-Feb-05 19:33N 52°06' E 004°16'0 0.0
2016-Feb-05 18:33N 52°06' E 004°16'6 5.6
2016-Feb-05 17:33N 52°05' E 004°07'6 5.6
2016-Feb-05 16:33N 51°59' E 004°05'1313.0
2016-Feb-05 15:33N 51°51' E 004°21'9 9.5
2016-Feb-05 14:34N 51°48' E 004°36'5 5.4
2016-Feb-05 13:33N 51°49' E 004°45'5 4.6
2016-Feb-05 12:32N 51°49' E 004°52'0 0.0
2016-Feb-05 10:07N 51°49' E 004°52'0 0.0
2016-Feb-05 09:25N 51°49' E 004°52'0 0.0
2016-Feb-05 08:19N 51°49' E 004°52'0 0.0
2016-Feb-05 07:16N 51°49' E 004°52'0 0.0
2016-Feb-05 04:13N 51°49' E 004°52'0 0.0
2016-Feb-05 01:16N 51°49' E 004°52'0 0.0
2016-Feb-05 00:16N 51°49' E 004°52'0 0.0
2016-Feb-04 21:34N 51°49' E 004°52'0 0.0
2016-Feb-04 19:19N 51°49' E 004°52'0 0.0
2016-Feb-04 17:28N 51°49' E 004°52'0 0.0
2016-Feb-04 16:22N 51°49' E 004°52'0 0.0
2016-Feb-04 13:31N 51°49' E 004°52'0 0.0
2016-Feb-04 12:07N 51°49' E 004°52'0 0.0
2016-Feb-04 11:25N 51°49' E 004°52'0 0.0
2016-Feb-04 08:22N 51°49' E 004°52'0 0.0
2016-Feb-04 07:22N 51°49' E 004°52'0 0.0
2016-Feb-04 06:22N 51°49' E 004°52'0 0.0
2016-Feb-04 04:31N 51°49' E 004°52'0 0.0
2016-Feb-04 03:34N 51°49' E 004°52'0 0.0
2016-Feb-04 02:22N 51°49' E 004°52'0 0.0
2016-Feb-04 00:10N 51°49' E 004°52'0 0.0
2016-Feb-03 23:25N 51°49' E 004°52'0 0.0
2016-Feb-03 22:16N 51°49' E 004°52'0 0.0
2016-Feb-03 20:28N 51°49' E 004°52'0 0.0
2016-Feb-03 17:21N 51°49' E 004°52'0 0.0
2016-Feb-03 16:21N 51°49' E 004°52'0 0.0
2016-Feb-03 15:21N 51°49' E 004°52'0 0.0
2016-Feb-03 14:33N 51°49' E 004°52'0 0.0
2016-Feb-03 11:03N 51°49' E 004°52'0 0.0
2016-Feb-03 10:33N 51°49' E 004°52'0 0.0
2016-Feb-03 08:27N 51°49' E 004°52'0 0.0
2016-Feb-03 07:06N 51°49' E 004°52'0 0.0
2016-Feb-03 06:23N 51°49' E 004°52'0 0.0
2016-Feb-03 05:29N 51°49' E 004°52'0 0.0
2016-Feb-03 03:32N 51°49' E 004°52'0 0.0
2016-Feb-03 02:32N 51°49' E 004°52'0 0.0
2016-Feb-03 00:32N 51°49' E 004°52'0 0.0
2016-Feb-02 23:14N 51°49' E 004°52'0 0.0
2016-Feb-02 22:32N 51°49' E 004°52'0 0.0
2016-Feb-02 17:26N 51°49' E 004°52'0 0.0
2016-Feb-02 14:05N 51°49' E 004°52'0 0.0
2016-Feb-02 13:32N 51°49' E 004°52'0 0.0
2016-Feb-02 08:26N 51°49' E 004°52'0 0.0
2016-Feb-02 05:32N 51°49' E 004°52'0 0.0
2016-Feb-02 04:05N 51°49' E 004°52'0 0.0
2016-Feb-02 03:32N 51°49' E 004°52'0 0.0
2016-Feb-02 00:23N 51°49' E 004°52'0 0.0
2016-Feb-01 23:05N 51°49' E 004°52'0 0.0
2016-Feb-01 21:29N 51°49' E 004°52'0 0.0
2016-Feb-01 19:29N 51°49' E 004°52'0 0.0
2016-Feb-01 18:29N 51°49' E 004°52'0 0.0
2016-Feb-01 15:17N 51°49' E 004°52'0 0.0
2016-Feb-01 12:32N 51°49' E 004°52'0 0.0
2016-Feb-01 02:32N 51°49' E 004°52'0 0.0
2016-Jan-31 23:32N 51°49' E 004°52'0 0.0
2016-Jan-31 15:29N 51°49' E 004°52'0 0.0
2016-Jan-31 08:26N 51°49' E 004°52'0 0.0
2016-Jan-31 06:29N 51°49' E 004°52'0 0.0
2016-Jan-30 15:26N 51°49' E 004°52'0 0.0
2016-Jan-30 10:17N 51°49' E 004°52'0 0.0
2016-Jan-30 07:23N 51°49' E 004°52'0 0.0
2016-Jan-30 02:23N 51°49' E 004°52'0 0.0
2016-Jan-30 01:26N 51°49' E 004°52'0 0.0
2016-Jan-30 00:23N 51°49' E 004°52'0 0.0
2016-Jan-29 23:17N 51°49' E 004°52'0 0.0
2016-Jan-29 21:32N 51°49' E 004°52'0 0.0
2016-Jan-29 20:14N 51°49' E 004°52'0 0.0
2016-Jan-29 18:20N 51°49' E 004°52'0 0.0
2016-Jan-29 15:29N 51°49' E 004°52'0 0.0
2016-Jan-29 14:24N 51°49' E 004°52'0 0.0
2016-Jan-29 12:24N 51°49' E 004°52'0 0.0
2016-Jan-29 11:27N 51°49' E 004°52'0 0.0
2016-Jan-29 10:24N 51°49' E 004°52'0 0.0
2016-Jan-29 09:33N 51°49' E 004°52'0 0.0
2016-Jan-29 08:33N 51°49' E 004°52'0 0.0
2016-Jan-29 07:24N 51°49' E 004°52'0 0.0
2016-Jan-29 06:30N 51°49' E 004°52'0 0.0
2016-Jan-29 05:21N 51°49' E 004°52'0 0.0
2016-Jan-29 04:30N 51°49' E 004°52'  
Track history (hours):
 
Tides and Currents Weather Stations Pressure Air Temp Water Temp Dewpoint Dewpoint Depression Visibility Wind Speed Wind Dir Waves Ship Positions

Oceanographic research ship Tridens (Netherlands)

Detailed information on ship capabilities available from University of Delaware's Ocean Information Center.

Last reported at 2016-Feb-08 03:33 UTC. Time now 2016-Feb-08 04:04 UTC.
Position N 52°06' E 004°16'.

Length 74 m; beam 14 m.

Type: Other ship. MMSI: 244033000.

Date/timePositionNaut miles runAvg speedWind from/ knotsBaromVisibWave heightAir tempDewpointWater temp
2016-Feb-08 03:33N 52°06' E 004°16'0 0.0
2016-Feb-08 02:33N 52°06' E 004°16'0 0.0
2016-Feb-08 01:33N 52°06' E 004°16'0 0.0
2016-Feb-08 00:33N 52°06' E 004°16'0 0.0
2016-Feb-07 23:33N 52°06' E 004°16'0 0.0
2016-Feb-07 22:33N 52°06' E 004°16'0 0.0
2016-Feb-07 21:33N 52°06' E 004°16'0 0.0
2016-Feb-07 20:33N 52°06' E 004°16'0 0.0
2016-Feb-07 19:33N 52°06' E 004°16'0 0.0
2016-Feb-07 18:33N 52°06' E 004°16'0 0.0
2016-Feb-07 17:33N 52°06' E 004°16'0 0.0
2016-Feb-07 16:33N 52°06' E 004°16'0 0.0
2016-Feb-07 15:33N 52°06' E 004°16'0 0.0
2016-Feb-07 14:33N 52°06' E 004°16'0 0.0
2016-Feb-07 13:33N 52°06' E 004°16'0 0.0
2016-Feb-07 12:33N 52°06' E 004°16'0 0.0
2016-Feb-07 11:33N 52°06' E 004°16'0 0.0
2016-Feb-07 10:33N 52°06' E 004°16'0 0.0
2016-Feb-07 09:33N 52°06' E 004°16'0 0.0
2016-Feb-07 08:33N 52°06' E 004°16'0 0.0
2016-Feb-07 07:33N 52°06' E 004°16'0 0.0
2016-Feb-07 06:33N 52°06' E 004°16'0 0.0
2016-Feb-07 05:34N 52°06' E 004°16'0 0.0
2016-Feb-07 04:33N 52°06' E 004°16'0 0.0
2016-Feb-07 03:33N 52°06' E 004°16'0 0.0
2016-Feb-07 02:33N 52°06' E 004°16'0 0.0
2016-Feb-07 01:33N 52°06' E 004°16'0 0.0
2016-Feb-07 00:33N 52°06' E 004°16'0 0.0
2016-Feb-06 23:33N 52°06' E 004°16'0 0.0
2016-Feb-06 22:33N 52°06' E 004°16'0 0.0
2016-Feb-06 21:33N 52°06' E 004°16'0 0.0
2016-Feb-06 20:33N 52°06' E 004°16'0 0.0
2016-Feb-06 19:33N 52°06' E 004°16'0 0.0
2016-Feb-06 18:33N 52°06' E 004°16'0 0.0
2016-Feb-06 17:33N 52°06' E 004°16'0 0.0
2016-Feb-06 16:33N 52°06' E 004°16'0 0.0
2016-Feb-06 15:33N 52°06' E 004°16'0 0.0
2016-Feb-06 14:33N 52°06' E 004°16'0 0.0
2016-Feb-06 13:33N 52°06' E 004°16'0 0.0
2016-Feb-06 12:33N 52°06' E 004°16'0 0.0
2016-Feb-06 11:33N 52°06' E 004°16'0 0.0
2016-Feb-06 10:33N 52°06' E 004°16'0 0.0
2016-Feb-06 09:33N 52°06' E 004°16'0 0.0
2016-Feb-06 08:33N 52°06' E 004°16'0 0.0
2016-Feb-06 07:33N 52°06' E 004°16'0 0.0
2016-Feb-06 06:33N 52°06' E 004°16'0 0.0
2016-Feb-06 05:33N 52°06' E 004°16'0 0.0
2016-Feb-06 04:33N 52°06' E 004°16'0 0.0
2016-Feb-06 03:33N 52°06' E 004°16'0 0.0
2016-Feb-06 02:33N 52°06' E 004°16'0 0.0
2016-Feb-06 01:33N 52°06' E 004°16'0 0.0
2016-Feb-06 00:33N 52°06' E 004°16'0 0.0
2016-Feb-05 23:33N 52°06' E 004°16'0 0.0
2016-Feb-05 22:33N 52°06' E 004°16'0 0.0
2016-Feb-05 21:33N 52°06' E 004°16'0 0.0
2016-Feb-05 20:33N 52°06' E 004°16'0 0.0
2016-Feb-05 19:33N 52°06' E 004°16'0 0.0
2016-Feb-05 18:33N 52°06' E 004°16'6 5.6
2016-Feb-05 17:33N 52°05' E 004°07'6 5.6
2016-Feb-05 16:33N 51°59' E 004°05'1313.0
2016-Feb-05 15:33N 51°51' E 004°21'9 9.5
2016-Feb-05 14:34N 51°48' E 004°36'5 5.4
2016-Feb-05 13:33N 51°49' E 004°45'5 4.6
2016-Feb-05 12:32N 51°49' E 004°52'0 0.0
2016-Feb-05 10:07N 51°49' E 004°52'0 0.0
2016-Feb-05 09:25N 51°49' E 004°52'0 0.0
2016-Feb-05 08:19N 51°49' E 004°52'0 0.0
2016-Feb-05 07:16N 51°49' E 004°52'0 0.0
2016-Feb-05 04:13N 51°49' E 004°52'0 0.0
2016-Feb-05 01:16N 51°49' E 004°52'0 0.0
2016-Feb-05 00:16N 51°49' E 004°52'0 0.0
2016-Feb-04 21:34N 51°49' E 004°52'0 0.0
2016-Feb-04 19:19N 51°49' E 004°52'0 0.0
2016-Feb-04 17:28N 51°49' E 004°52'0 0.0
2016-Feb-04 16:22N 51°49' E 004°52'0 0.0
2016-Feb-04 13:31N 51°49' E 004°52'0 0.0
2016-Feb-04 12:07N 51°49' E 004°52'0 0.0
2016-Feb-04 11:25N 51°49' E 004°52'0 0.0
2016-Feb-04 08:22N 51°49' E 004°52'0 0.0
2016-Feb-04 07:22N 51°49' E 004°52'0 0.0
2016-Feb-04 06:22N 51°49' E 004°52'0 0.0
2016-Feb-04 04:31N 51°49' E 004°52'0 0.0
2016-Feb-04 03:34N 51°49' E 004°52'0 0.0
2016-Feb-04 02:22N 51°49' E 004°52'0 0.0
2016-Feb-04 00:10N 51°49' E 004°52'0 0.0
2016-Feb-03 23:25N 51°49' E 004°52'0 0.0
2016-Feb-03 22:16N 51°49' E 004°52'0 0.0
2016-Feb-03 20:28N 51°49' E 004°52'0 0.0
2016-Feb-03 17:21N 51°49' E 004°52'0 0.0
2016-Feb-03 16:21N 51°49' E 004°52'0 0.0
2016-Feb-03 15:21N 51°49' E 004°52'0 0.0
2016-Feb-03 14:33N 51°49' E 004°52'0 0.0
2016-Feb-03 11:03N 51°49' E 004°52'0 0.0
2016-Feb-03 10:33N 51°49' E 004°52'0 0.0
2016-Feb-03 08:27N 51°49' E 004°52'0 0.0
2016-Feb-03 07:06N 51°49' E 004°52'0 0.0
2016-Feb-03 06:23N 51°49' E 004°52'0 0.0
2016-Feb-03 05:29N 51°49' E 004°52'0 0.0
2016-Feb-03 03:32N 51°49' E 004°52'0 0.0
2016-Feb-03 02:32N 51°49' E 004°52'0 0.0
2016-Feb-03 00:32N 51°49' E 004°52'0 0.0
2016-Feb-02 23:14N 51°49' E 004°52'0 0.0
2016-Feb-02 22:32N 51°49' E 004°52'0 0.0
2016-Feb-02 17:26N 51°49' E 004°52'0 0.0
2016-Feb-02 14:05N 51°49' E 004°52'0 0.0
2016-Feb-02 13:32N 51°49' E 004°52'0 0.0
2016-Feb-02 08:26N 51°49' E 004°52'0 0.0
2016-Feb-02 05:32N 51°49' E 004°52'0 0.0
2016-Feb-02 04:05N 51°49' E 004°52'0 0.0
2016-Feb-02 03:32N 51°49' E 004°52'0 0.0
2016-Feb-02 00:23N 51°49' E 004°52'0 0.0
2016-Feb-01 23:05N 51°49' E 004°52'0 0.0
2016-Feb-01 21:29N 51°49' E 004°52'0 0.0
2016-Feb-01 19:29N 51°49' E 004°52'0 0.0
2016-Feb-01 18:29N 51°49' E 004°52'0 0.0
2016-Feb-01 15:17N 51°49' E 004°52'0 0.0
2016-Feb-01 12:32N 51°49' E 004°52'0 0.0
2016-Feb-01 02:32N 51°49' E 004°52'0 0.0
2016-Jan-31 23:32N 51°49' E 004°52'0 0.0
2016-Jan-31 15:29N 51°49' E 004°52'0 0.0
2016-Jan-31 08:26N 51°49' E 004°52'0 0.0
2016-Jan-31 06:29N 51°49' E 004°52'0 0.0
2016-Jan-30 15:26N 51°49' E 004°52'0 0.0
2016-Jan-30 10:17N 51°49' E 004°52'0 0.0
2016-Jan-30 07:23N 51°49' E 004°52'0 0.0
2016-Jan-30 02:23N 51°49' E 004°52'0 0.0
2016-Jan-30 01:26N 51°49' E 004°52'0 0.0
2016-Jan-30 00:23N 51°49' E 004°52'0 0.0
2016-Jan-29 23:17N 51°49' E 004°52'0 0.0
2016-Jan-29 21:32N 51°49' E 004°52'0 0.0
2016-Jan-29 20:14N 51°49' E 004°52'0 0.0
2016-Jan-29 18:20N 51°49' E 004°52'0 0.0
2016-Jan-29 15:29N 51°49' E 004°52'0 0.0
2016-Jan-29 14:24N 51°49' E 004°52'0 0.0
2016-Jan-29 12:24N 51°49' E 004°52'0 0.0
2016-Jan-29 11:27N 51°49' E 004°52'0 0.0
2016-Jan-29 10:24N 51°49' E 004°52'0 0.0
2016-Jan-29 09:33N 51°49' E 004°52'0 0.0
2016-Jan-29 08:33N 51°49' E 004°52'0 0.0
2016-Jan-29 07:24N 51°49' E 004°52'0 0.0
2016-Jan-29 06:30N 51°49' E 004°52'0 0.0
2016-Jan-29 05:21N 51°49' E 004°52'0 0.0
2016-Jan-29 04:30N 51°49' E 004°52'  

Dump ship's entire track history